createdAt,value
2018-12-20T00:00:42.729Z,1.90
2018-12-20T00:03:11.364Z,1.90
2018-12-20T00:05:40.000Z,1.90
2018-12-20T00:08:08.670Z,1.90
2018-12-20T00:10:37.317Z,1.80
2018-12-20T00:13:05.962Z,1.90
2018-12-20T00:15:34.619Z,1.90
2018-12-20T00:18:04.165Z,1.90
2018-12-20T00:20:32.885Z,1.90
2018-12-20T00:23:01.561Z,1.90
2018-12-20T00:25:30.176Z,2.00
2018-12-20T00:27:58.739Z,2.00
2018-12-20T00:30:27.327Z,2.00
2018-12-20T00:32:55.872Z,2.10
2018-12-20T00:35:24.487Z,2.10
2018-12-20T00:37:53.065Z,2.10
2018-12-20T00:40:21.760Z,2.00
2018-12-20T00:42:50.434Z,2.00
2018-12-20T00:45:19.039Z,2.10
2018-12-20T00:47:47.734Z,2.00
2018-12-20T00:50:16.419Z,2.00
2018-12-20T00:52:45.125Z,2.00
2018-12-20T00:55:13.873Z,2.00
2018-12-20T00:57:42.555Z,2.00
2018-12-20T01:00:11.917Z,2.00
2018-12-20T01:02:40.539Z,2.10
2018-12-20T01:05:09.175Z,2.00
2018-12-20T01:07:37.762Z,2.10
2018-12-20T01:10:13.215Z,2.10
2018-12-20T01:12:41.823Z,2.10
2018-12-20T01:15:10.419Z,2.10
2018-12-20T01:17:39.442Z,2.10
2018-12-20T01:20:09.874Z,2.10
2018-12-20T01:22:38.575Z,2.20
2018-12-20T01:25:07.541Z,2.20
2018-12-20T01:27:36.270Z,2.20
2018-12-20T01:30:06.289Z,2.20
2018-12-20T01:32:35.132Z,2.20
2018-12-20T01:35:04.348Z,2.30
2018-12-20T01:37:33.073Z,2.30
2018-12-20T01:40:01.916Z,2.30
2018-12-20T01:42:30.548Z,2.30
2018-12-20T01:44:59.335Z,2.30
2018-12-20T01:47:27.970Z,2.20
2018-12-20T01:49:57.420Z,2.20
2018-12-20T01:52:26.125Z,2.30
2018-12-20T01:54:54.797Z,2.30
2018-12-20T01:57:23.560Z,2.30
2018-12-20T01:59:52.195Z,2.30
2018-12-20T02:02:20.994Z,2.40
2018-12-20T02:04:49.602Z,2.40
2018-12-20T02:07:18.308Z,2.40
2018-12-20T02:09:47.131Z,2.40
2018-12-20T02:12:15.792Z,2.40
2018-12-20T02:14:44.526Z,2.40
2018-12-20T02:17:13.371Z,2.40
2018-12-20T02:19:42.080Z,2.40
2018-12-20T02:22:10.778Z,2.40
2018-12-20T02:24:39.582Z,2.40
2018-12-20T02:27:08.397Z,2.50
2018-12-20T02:29:36.979Z,2.40
2018-12-20T02:32:05.619Z,2.50
2018-12-20T02:34:34.435Z,2.50
2018-12-20T02:37:03.350Z,2.50
2018-12-20T02:39:31.907Z,2.50
2018-12-20T02:42:00.793Z,2.50
2018-12-20T02:44:29.379Z,2.50
2018-12-20T02:46:58.060Z,2.50
2018-12-20T02:49:26.684Z,2.50
2018-12-20T02:51:55.547Z,2.50
2018-12-20T02:54:30.822Z,2.50
2018-12-20T02:56:59.451Z,2.50
2018-12-20T02:59:28.177Z,2.50
2018-12-20T03:01:56.999Z,2.60
2018-12-20T03:04:25.923Z,2.50
2018-12-20T03:06:54.598Z,2.60
2018-12-20T03:09:23.501Z,2.60
2018-12-20T03:11:52.134Z,2.60
2018-12-20T03:14:20.831Z,2.60
2018-12-20T03:16:49.863Z,2.60
2018-12-20T03:19:18.547Z,2.60
2018-12-20T03:21:47.230Z,2.60
2018-12-20T03:24:16.068Z,2.60
2018-12-20T03:26:44.675Z,2.60
2018-12-20T03:29:13.360Z,2.60
2018-12-20T03:31:41.933Z,2.60
2018-12-20T03:34:10.510Z,2.70
2018-12-20T03:36:39.232Z,2.60
2018-12-20T03:39:08.607Z,2.70
2018-12-20T03:41:37.336Z,2.60
2018-12-20T03:44:05.911Z,2.70
2018-12-20T03:46:34.855Z,2.70
2018-12-20T03:49:03.941Z,2.70
2018-12-20T03:51:32.703Z,2.70
2018-12-20T03:54:01.282Z,2.70
2018-12-20T03:56:30.120Z,2.70
2018-12-20T03:58:58.698Z,2.70
2018-12-20T04:01:27.250Z,2.70
2018-12-20T04:03:55.848Z,2.70
2018-12-20T04:06:24.415Z,2.70
2018-12-20T04:08:53.231Z,2.70
2018-12-20T04:11:21.891Z,2.80
2018-12-20T04:13:50.533Z,2.80
2018-12-20T04:16:19.332Z,2.80
2018-12-20T04:18:48.203Z,2.80
2018-12-20T04:21:17.046Z,2.80
2018-12-20T04:23:46.543Z,2.80
2018-12-20T04:26:15.250Z,2.90
2018-12-20T04:28:43.821Z,2.80
2018-12-20T04:31:12.611Z,2.80
2018-12-20T04:33:41.290Z,2.80
2018-12-20T04:36:10.007Z,2.80
2018-12-20T04:38:38.575Z,2.80
2018-12-20T04:41:07.197Z,2.80
2018-12-20T04:43:35.861Z,2.80
2018-12-20T04:46:04.597Z,2.80
2018-12-20T04:48:33.266Z,2.80
2018-12-20T04:51:01.865Z,2.80
2018-12-20T04:53:30.721Z,2.80
2018-12-20T04:55:59.355Z,2.80
2018-12-20T04:58:32.087Z,2.80
2018-12-20T05:01:00.958Z,2.90
2018-12-20T05:03:29.767Z,2.90
2018-12-20T05:05:58.647Z,3.00
2018-12-20T05:08:27.376Z,3.00
2018-12-20T05:10:55.983Z,3.00
2018-12-20T05:13:24.606Z,2.90
2018-12-20T05:15:56.449Z,2.90
2018-12-20T05:18:23.835Z,2.90
2018-12-20T05:20:52.437Z,3.00
2018-12-20T05:23:21.089Z,3.00
2018-12-20T05:25:49.792Z,3.00
2018-12-20T05:28:19.226Z,2.90
2018-12-20T05:30:47.996Z,3.00
2018-12-20T05:33:16.810Z,3.00
2018-12-20T05:35:45.698Z,2.90
2018-12-20T05:38:14.590Z,3.00
2018-12-20T05:40:43.193Z,3.00
2018-12-20T05:43:11.976Z,3.00
2018-12-20T05:45:40.639Z,3.00
2018-12-20T05:48:09.377Z,3.00
2018-12-20T05:50:38.532Z,3.00
2018-12-20T05:53:08.022Z,3.00
2018-12-20T05:55:36.614Z,3.00
2018-12-20T05:58:05.204Z,3.10
2018-12-20T06:00:33.791Z,3.10
2018-12-20T06:03:05.342Z,3.10
2018-12-20T06:05:33.928Z,3.10
2018-12-20T06:08:02.558Z,3.20
2018-12-20T06:10:31.219Z,3.20
2018-12-20T06:13:00.112Z,3.20
2018-12-20T06:15:28.831Z,3.20
2018-12-20T06:17:57.636Z,3.20
2018-12-20T06:20:26.335Z,3.20
2018-12-20T06:22:54.929Z,3.10
2018-12-20T06:25:23.523Z,3.20
2018-12-20T06:27:52.093Z,3.20
2018-12-20T06:30:20.722Z,3.20
2018-12-20T06:32:49.319Z,3.20
2018-12-20T06:35:17.941Z,3.20
2018-12-20T06:37:46.512Z,3.20
2018-12-20T06:40:16.391Z,3.20
2018-12-20T06:42:45.145Z,3.20
2018-12-20T06:45:13.748Z,3.20
2018-12-20T06:47:42.359Z,3.30
2018-12-20T06:50:10.959Z,3.40
2018-12-20T06:52:39.560Z,3.50
2018-12-20T06:55:14.467Z,3.60
2018-12-20T06:57:43.044Z,3.60
2018-12-20T07:00:12.547Z,3.70
2018-12-20T07:02:41.204Z,3.70
2018-12-20T07:05:09.927Z,3.80
2018-12-20T07:07:38.484Z,3.80
2018-12-20T07:10:07.855Z,3.80
2018-12-20T07:12:36.439Z,3.80
2018-12-20T07:15:05.476Z,3.80
2018-12-20T07:17:34.198Z,3.90
2018-12-20T07:20:02.989Z,3.90
2018-12-20T07:22:31.556Z,3.80
2018-12-20T07:25:00.175Z,3.80
2018-12-20T07:27:28.746Z,3.80
2018-12-20T07:29:57.376Z,3.80
2018-12-20T07:32:25.948Z,3.90
2018-12-20T07:34:54.547Z,3.90
2018-12-20T07:37:24.304Z,3.90
2018-12-20T07:39:53.041Z,3.80
2018-12-20T07:42:21.680Z,3.80
2018-12-20T07:44:50.272Z,3.80
2018-12-20T07:47:18.848Z,3.90
2018-12-20T07:49:47.563Z,3.90
2018-12-20T07:52:16.145Z,3.90
2018-12-20T07:54:44.787Z,3.90
2018-12-20T07:57:13.355Z,4.00
2018-12-20T07:59:42.027Z,4.00
2018-12-20T08:02:10.719Z,4.00
2018-12-20T08:04:39.399Z,4.00
2018-12-20T08:07:08.052Z,4.00
2018-12-20T08:09:36.663Z,4.00
2018-12-20T08:12:05.297Z,4.10
2018-12-20T08:14:33.879Z,4.00
2018-12-20T08:17:02.481Z,3.90
2018-12-20T08:19:36.194Z,3.90
2018-12-20T08:22:02.350Z,3.90
2018-12-20T08:24:31.184Z,3.90
2018-12-20T08:26:59.790Z,3.90
2018-12-20T08:29:28.455Z,3.90
2018-12-20T08:31:57.072Z,3.90
2018-12-20T08:34:25.672Z,3.90
2018-12-20T08:36:54.247Z,3.80
2018-12-20T08:39:22.839Z,3.90
2018-12-20T08:41:51.417Z,4.00
2018-12-20T08:44:19.984Z,4.00
2018-12-20T08:46:54.386Z,3.90
2018-12-20T08:49:19.192Z,4.00
2018-12-20T08:51:49.188Z,4.00
2018-12-20T08:54:18.068Z,3.90
2018-12-20T08:56:46.627Z,3.90
2018-12-20T08:59:15.210Z,3.90
2018-12-20T09:01:43.819Z,3.80
2018-12-20T09:04:12.403Z,3.80
2018-12-20T09:06:40.963Z,3.80
2018-12-20T09:09:09.554Z,3.80
2018-12-20T09:11:38.297Z,3.80
2018-12-20T09:14:06.909Z,3.90
2018-12-20T09:16:35.587Z,3.90
2018-12-20T09:19:04.223Z,3.90
2018-12-20T09:21:32.783Z,4.00
2018-12-20T09:24:01.388Z,4.00
2018-12-20T09:26:29.985Z,4.00
2018-12-20T09:28:58.631Z,4.10
2018-12-20T09:31:27.194Z,4.10
2018-12-20T09:33:55.807Z,4.10
2018-12-20T09:36:24.390Z,4.10
2018-12-20T09:38:52.996Z,4.10
2018-12-20T09:41:21.571Z,4.10
2018-12-20T09:43:50.163Z,4.20
2018-12-20T09:46:19.019Z,4.20
2018-12-20T09:48:47.673Z,4.30
2018-12-20T09:51:16.260Z,4.30
2018-12-20T09:53:44.848Z,4.40
2018-12-20T09:56:13.399Z,4.40
2018-12-20T09:58:41.991Z,4.50
2018-12-20T10:01:10.544Z,4.50
2018-12-20T10:03:39.136Z,4.60
2018-12-20T10:06:07.699Z,4.80
2018-12-20T10:08:36.297Z,4.90
2018-12-20T10:11:04.871Z,4.90
2018-12-20T10:13:33.518Z,4.90
2018-12-20T10:16:02.102Z,4.90
2018-12-20T10:18:30.682Z,4.90
2018-12-20T10:20:59.367Z,4.90
2018-12-20T10:23:27.941Z,4.90
2018-12-20T10:25:56.668Z,4.90
2018-12-20T10:28:25.301Z,5.00
2018-12-20T10:30:53.900Z,5.00
2018-12-20T10:33:22.496Z,5.10
2018-12-20T10:35:51.077Z,5.10
2018-12-20T10:38:19.764Z,5.10
2018-12-20T10:40:48.355Z,5.30
2018-12-20T10:43:17.007Z,5.30
2018-12-20T10:45:45.636Z,5.30
2018-12-20T10:48:14.211Z,5.40
2018-12-20T10:50:42.872Z,5.40
2018-12-20T10:53:11.464Z,5.50
2018-12-20T10:55:40.143Z,5.50
2018-12-20T10:58:08.739Z,5.50
2018-12-20T11:00:42.792Z,5.50
2018-12-20T11:04:14.011Z,5.50
2018-12-20T11:06:47.866Z,5.50
2018-12-20T11:09:21.758Z,5.60
2018-12-20T11:11:55.707Z,5.60
2018-12-20T11:14:24.286Z,5.60
2018-12-20T11:16:52.887Z,5.70
2018-12-20T11:19:21.460Z,5.70
2018-12-20T11:21:50.056Z,5.70
2018-12-20T11:24:18.619Z,5.70
2018-12-20T11:26:47.207Z,5.80
2018-12-20T11:29:15.855Z,5.80
2018-12-20T11:31:44.419Z,5.90
2018-12-20T11:34:13.084Z,5.90
2018-12-20T11:36:41.691Z,5.90
2018-12-20T11:39:10.303Z,5.90
2018-12-20T11:41:38.867Z,5.90
2018-12-20T11:44:07.449Z,6.00
2018-12-20T11:46:36.016Z,6.00
2018-12-20T11:49:04.627Z,6.10
2018-12-20T11:51:33.218Z,6.10
2018-12-20T11:54:01.810Z,6.20
2018-12-20T11:56:30.379Z,6.30
2018-12-20T11:58:58.959Z,6.40
2018-12-20T12:01:27.524Z,6.40
2018-12-20T12:03:57.497Z,6.60
2018-12-20T12:06:26.480Z,6.60
2018-12-20T12:08:55.062Z,6.50
2018-12-20T12:11:23.657Z,6.40
2018-12-20T12:13:52.335Z,6.40
2018-12-20T12:16:20.908Z,6.30
2018-12-20T12:18:49.503Z,6.30
2018-12-20T12:21:18.104Z,6.30
2018-12-20T12:23:53.177Z,6.30
2018-12-20T12:26:21.740Z,6.30
2018-12-20T12:28:50.332Z,6.20
2018-12-20T12:31:19.587Z,6.20
2018-12-20T12:33:48.223Z,6.20
2018-12-20T12:36:16.776Z,6.20
2018-12-20T12:38:45.351Z,6.30
2018-12-20T12:41:13.962Z,6.20
2018-12-20T12:43:42.524Z,6.30
2018-12-20T12:46:11.117Z,6.20
2018-12-20T12:48:39.676Z,6.10
2018-12-20T12:51:08.263Z,6.10
2018-12-20T12:53:36.964Z,6.10
2018-12-20T12:56:05.853Z,6.00
2018-12-20T12:58:34.461Z,6.00
2018-12-20T13:01:03.568Z,6.10
2018-12-20T13:03:32.156Z,6.00
2018-12-20T13:06:00.732Z,6.00
2018-12-20T13:08:29.484Z,6.00
2018-12-20T13:10:58.423Z,5.90
2018-12-20T13:13:27.196Z,5.90
2018-12-20T13:15:55.994Z,5.90
2018-12-20T13:18:24.580Z,5.80
2018-12-20T13:20:53.145Z,5.90
2018-12-20T13:23:21.737Z,5.80
2018-12-20T13:25:50.321Z,5.80
2018-12-20T13:28:18.915Z,5.80
2018-12-20T13:30:47.485Z,5.70
2018-12-20T13:33:16.097Z,5.70
2018-12-20T13:35:44.659Z,5.70
2018-12-20T13:38:13.270Z,5.70
2018-12-20T13:40:41.859Z,5.70
2018-12-20T13:43:10.458Z,5.70
2018-12-20T13:45:39.043Z,5.70
2018-12-20T13:48:07.659Z,5.70
2018-12-20T13:50:36.353Z,5.70
2018-12-20T13:53:04.985Z,5.70
2018-12-20T13:55:33.565Z,5.60
2018-12-20T13:58:02.154Z,5.60
2018-12-20T14:00:30.726Z,5.70
2018-12-20T14:02:59.328Z,5.70
2018-12-20T14:05:27.887Z,5.60
2018-12-20T14:07:58.938Z,5.60
2018-12-20T14:10:27.686Z,5.60
2018-12-20T14:12:56.270Z,5.50
2018-12-20T14:15:25.181Z,5.50
2018-12-20T14:17:53.783Z,5.40
2018-12-20T14:20:22.351Z,5.40
2018-12-20T14:22:50.955Z,5.30
2018-12-20T14:25:19.595Z,5.30
2018-12-20T14:27:48.232Z,5.20
2018-12-20T14:30:16.824Z,5.20
2018-12-20T14:32:45.426Z,5.20
2018-12-20T14:35:14.012Z,5.10
2018-12-20T14:37:42.612Z,5.10
2018-12-20T14:40:11.268Z,5.10
2018-12-20T14:42:39.907Z,5.10
2018-12-20T14:45:08.648Z,5.00
2018-12-20T14:47:37.236Z,5.00
2018-12-20T14:50:07.364Z,5.00
2018-12-20T14:52:35.932Z,5.00
2018-12-20T14:55:05.464Z,5.00
2018-12-20T14:57:34.218Z,4.90
2018-12-20T15:00:03.056Z,4.80
2018-12-20T15:02:31.620Z,4.80
2018-12-20T15:05:00.196Z,4.80
2018-12-20T15:07:28.744Z,4.80
2018-12-20T15:09:57.362Z,4.80
2018-12-20T15:12:25.964Z,4.70
2018-12-20T15:14:54.547Z,4.70
2018-12-20T15:17:23.132Z,4.70
2018-12-20T15:19:51.690Z,4.70
2018-12-20T15:22:20.319Z,4.70
2018-12-20T15:24:48.992Z,4.70
2018-12-20T15:27:17.572Z,4.70
2018-12-20T15:29:46.127Z,4.70
2018-12-20T15:32:14.752Z,4.60
2018-12-20T15:34:43.866Z,4.70
2018-12-20T15:37:12.467Z,4.70
2018-12-20T15:39:41.029Z,4.70
2018-12-20T15:42:09.682Z,4.60
2018-12-20T15:44:40.350Z,4.70
2018-12-20T15:47:08.968Z,4.60
2018-12-20T15:49:41.997Z,4.60
2018-12-20T15:52:08.139Z,4.70
2018-12-20T15:54:36.760Z,4.70
2018-12-20T15:57:05.761Z,4.60
2018-12-20T15:59:34.367Z,4.60
2018-12-20T16:02:03.046Z,4.60
2018-12-20T16:04:31.632Z,4.60
2018-12-20T16:07:00.228Z,4.60
2018-12-20T16:09:28.808Z,4.50
2018-12-20T16:11:57.388Z,4.40
2018-12-20T16:14:26.125Z,4.40
2018-12-20T16:16:54.696Z,4.40
2018-12-20T16:19:23.349Z,4.30
2018-12-20T16:21:51.959Z,4.30
2018-12-20T16:24:20.556Z,4.30
2018-12-20T16:26:49.131Z,4.30
2018-12-20T16:29:17.733Z,4.30
2018-12-20T16:31:46.318Z,4.30
2018-12-20T16:34:15.024Z,4.30
2018-12-20T16:36:44.314Z,4.30
2018-12-20T16:39:12.879Z,4.30
2018-12-20T16:41:41.475Z,4.30
2018-12-20T16:44:10.059Z,4.30
2018-12-20T16:46:38.669Z,4.30
2018-12-20T16:49:13.506Z,4.30
2018-12-20T16:51:38.196Z,4.30
2018-12-20T16:54:06.777Z,4.30
2018-12-20T16:56:35.410Z,4.30
2018-12-20T16:59:12.140Z,4.30
2018-12-20T17:01:40.740Z,4.30
2018-12-20T17:04:09.311Z,4.30
2018-12-20T17:06:37.967Z,4.30
2018-12-20T17:09:09.338Z,4.30
2018-12-20T17:11:38.008Z,4.30
2018-12-20T17:14:06.712Z,4.30
2018-12-20T17:16:35.335Z,4.30
2018-12-20T17:19:04.055Z,4.30
2018-12-20T17:21:32.876Z,4.30
2018-12-20T17:24:01.460Z,4.30
2018-12-20T17:26:30.044Z,4.30
2018-12-20T17:28:59.394Z,4.30
2018-12-20T17:31:28.004Z,4.30
2018-12-20T17:33:56.583Z,4.30
2018-12-20T17:36:31.884Z,4.30
2018-12-20T17:39:00.446Z,4.30
2018-12-20T17:41:29.052Z,4.30
2018-12-20T17:43:57.613Z,4.30
2018-12-20T17:46:26.210Z,4.30
2018-12-20T17:48:54.870Z,4.30
2018-12-20T17:51:23.467Z,4.30
2018-12-20T17:53:53.152Z,4.30
2018-12-20T17:56:21.772Z,4.30
2018-12-20T17:58:50.406Z,4.20
2018-12-20T18:01:20.108Z,4.20
2018-12-20T18:03:48.711Z,4.30
2018-12-20T18:06:17.300Z,4.30
2018-12-20T18:08:45.875Z,4.30
2018-12-20T18:11:14.599Z,4.30
2018-12-20T18:13:43.180Z,4.30
2018-12-20T18:16:11.771Z,4.20
2018-12-20T18:18:40.556Z,4.20
2018-12-20T18:21:09.677Z,4.20
2018-12-20T18:23:38.234Z,4.30
2018-12-20T18:26:06.851Z,4.30
2018-12-20T18:28:35.481Z,4.40
2018-12-20T18:31:04.971Z,4.50
2018-12-20T18:33:33.561Z,4.50
2018-12-20T18:36:02.489Z,4.50
2018-12-20T18:38:31.059Z,4.50
2018-12-20T18:40:59.657Z,4.60
2018-12-20T18:43:28.217Z,4.60
2018-12-20T18:45:56.816Z,4.60
2018-12-20T18:48:25.386Z,4.50
2018-12-20T18:50:53.972Z,4.60
2018-12-20T18:53:22.568Z,4.60
2018-12-20T18:55:51.305Z,4.50
2018-12-20T18:58:19.878Z,4.50
2018-12-20T19:00:48.457Z,4.50
2018-12-20T19:03:22.391Z,4.50
2018-12-20T19:05:51.432Z,4.50
2018-12-20T19:08:22.320Z,4.50
2018-12-20T19:10:53.119Z,4.40
2018-12-20T19:13:22.306Z,4.30
2018-12-20T19:15:52.173Z,4.30
2018-12-20T19:18:23.053Z,4.30
2018-12-20T19:20:53.616Z,4.20
2018-12-20T19:23:24.250Z,4.20
2018-12-20T19:25:55.795Z,4.20
2018-12-20T19:28:26.282Z,4.20
2018-12-20T19:30:55.850Z,4.20
2018-12-20T19:33:25.048Z,4.20
2018-12-20T19:35:54.826Z,4.30
2018-12-20T19:38:25.820Z,4.30
2018-12-20T19:40:56.921Z,4.30
2018-12-20T19:43:28.142Z,4.20
2018-12-20T19:45:58.663Z,4.30
2018-12-20T19:48:28.646Z,4.30
2018-12-20T19:50:59.215Z,4.20
2018-12-20T19:53:29.021Z,4.20
2018-12-20T19:55:59.587Z,4.20
2018-12-20T19:58:28.345Z,4.10
2018-12-20T20:00:56.960Z,4.10
2018-12-20T20:03:25.564Z,4.20
2018-12-20T20:05:54.853Z,4.20
2018-12-20T20:08:23.483Z,4.30
2018-12-20T20:10:52.195Z,4.30
2018-12-20T20:13:20.924Z,4.30
2018-12-20T20:15:49.478Z,4.30
2018-12-20T20:18:18.191Z,4.10
2018-12-20T20:20:46.840Z,4.00
2018-12-20T20:23:15.579Z,4.00
2018-12-20T20:25:44.230Z,3.90
2018-12-20T20:28:12.814Z,4.00
2018-12-20T20:30:41.427Z,4.00
2018-12-20T20:33:10.690Z,4.10
2018-12-20T20:35:39.288Z,4.10
2018-12-20T20:38:07.951Z,4.20
2018-12-20T20:40:36.500Z,4.20
2018-12-20T20:43:05.132Z,4.20
2018-12-20T20:45:33.721Z,4.20
2018-12-20T20:48:02.597Z,4.20
2018-12-20T20:50:31.189Z,4.20
2018-12-20T20:52:59.792Z,4.20
2018-12-20T20:55:29.205Z,4.20
2018-12-20T20:57:57.783Z,4.20
2018-12-20T21:00:27.255Z,4.20
2018-12-20T21:02:55.888Z,4.10
2018-12-20T21:05:24.515Z,4.20
2018-12-20T21:07:53.123Z,4.20
2018-12-20T21:10:21.794Z,4.10
2018-12-20T21:12:50.999Z,4.10
2018-12-20T21:15:19.581Z,4.10
2018-12-20T21:17:48.148Z,4.10
2018-12-20T21:20:16.702Z,4.00
2018-12-20T21:22:45.304Z,4.10
2018-12-20T21:25:13.876Z,4.10
2018-12-20T21:27:42.462Z,4.10
2018-12-20T21:30:11.156Z,4.00
2018-12-20T21:32:39.740Z,4.00
2018-12-20T21:35:08.750Z,4.00
2018-12-20T21:37:37.330Z,4.00
2018-12-20T21:40:06.928Z,4.00
2018-12-20T21:42:35.518Z,4.00
2018-12-20T21:45:05.034Z,3.90
2018-12-20T21:47:33.720Z,3.90
2018-12-20T21:50:02.674Z,3.90
2018-12-20T21:52:31.335Z,3.90
2018-12-20T21:54:59.874Z,3.90
2018-12-20T21:57:28.604Z,4.00
2018-12-20T22:00:01.157Z,4.00
2018-12-20T22:02:27.863Z,4.00
2018-12-20T22:04:56.466Z,4.00
2018-12-20T22:07:25.028Z,4.00
2018-12-20T22:09:53.629Z,4.00
2018-12-20T22:12:22.291Z,4.10
2018-12-20T22:14:50.853Z,4.10
2018-12-20T22:17:19.419Z,4.10
2018-12-20T22:19:47.968Z,4.10
2018-12-20T22:22:16.553Z,3.90
2018-12-20T22:24:45.148Z,4.00
2018-12-20T22:27:13.743Z,3.90
2018-12-20T22:29:42.288Z,3.90
2018-12-20T22:32:10.888Z,3.90
2018-12-20T22:34:39.451Z,3.90
2018-12-20T22:37:08.044Z,3.90
2018-12-20T22:39:36.592Z,3.90
2018-12-20T22:42:05.175Z,3.80
2018-12-20T22:44:33.715Z,3.70
2018-12-20T22:47:02.287Z,3.70
2018-12-20T22:49:30.828Z,3.70
2018-12-20T22:52:00.287Z,3.60
2018-12-20T22:54:28.831Z,3.60
2018-12-20T22:56:57.419Z,3.50
2018-12-20T22:59:26.004Z,3.50
2018-12-20T23:01:54.595Z,3.50
2018-12-20T23:04:23.136Z,3.50
2018-12-20T23:06:51.707Z,3.50
2018-12-20T23:09:20.276Z,3.50
2018-12-20T23:11:48.877Z,3.40
2018-12-20T23:14:17.416Z,3.50
2018-12-20T23:16:53.473Z,3.50
2018-12-20T23:19:16.599Z,3.50
2018-12-20T23:21:45.173Z,3.60
2018-12-20T23:24:13.751Z,3.50
2018-12-20T23:26:42.319Z,3.50
2018-12-20T23:29:10.934Z,3.40
2018-12-20T23:31:39.583Z,3.30
2018-12-20T23:34:08.137Z,3.30
2018-12-20T23:36:37.188Z,3.40
2018-12-20T23:39:06.715Z,3.30
2018-12-20T23:41:35.288Z,3.30
2018-12-20T23:44:03.838Z,3.20
2018-12-20T23:46:32.430Z,3.30
2018-12-20T23:49:01.499Z,3.20
2018-12-20T23:51:30.119Z,3.30
2018-12-20T23:53:58.672Z,3.20
2018-12-20T23:56:27.256Z,3.20
2018-12-20T23:58:55.810Z,3.20
